Terminal Aerodrome Forecast
Issued by NWS

Home | Current Version | Previous Version | Text Only | Print | Product List | Glossary On
Versions: 1 2 3 4 5 6 7 8 9 10 11 12 13 14 15 16 17 18 19 20 21 22 23 24 25 26 27 28 29
400
FTUS46 KOTX 102328
TAFMWH
TAF
KMWH 102328Z 1100/1124 01004KT P6SM SCT100 BKN150
     FM110400 32004KT P6SM SCT020 OVC050
     FM111600 36004KT P6SM VCSH BKN015 OVC040=

USA.gov is the U.S. government's official web portal to all federal, state and local government web resources and services.